• Join FlightAware (Why Join?)
  • Login
  • US Flag 
10:37PM EDT


 

Airport Tracker/Info


-or-


 

Live Flight TrackerFlight Track Log ✈ SWA3924 ✈ 26-Apr-2013 ✈ KMCO - KBNA

Flight Track Log - Related Links

Times and Time Zones

All times are in EDT time to prevent confusion due to time zone crossing. See the SWA3924 flight status page for this flight to view local times or setup timezone preferences in your user account.

Time Position Orientation Groundspeed Altitude Reporting Facility
EDT Latitude Longitude Course Direction KTS MPH feet Rate Location/Type
01:20PM 28.4500 -81.3167 360° North 166 191 800  Level Orlando TRACON
01:21PM 28.4667 -81.3167 360° North 161 185 1,600 2,160 Climbing Orlando TRACON
01:22PM 28.5167 -81.3167 360° North 220 253 3,700 2,460 Climbing Orlando TRACON
01:23PM 28.5833 -81.3333 348° North 254 292 6,600 3,000 Climbing Orlando TRACON
01:24PM 28.6000 -81.4000 286° West 284 327 9,500 3,000 Climbing Orlando TRACON
01:26PM 28.5650 -81.6139 259° West 357 411 16,000 2,040 Climbing Jacksonville Center
01:27PM 28.5517 -81.7275 262° West 357 411 16,100 840 Climbing Jacksonville Center
01:28PM 28.5400 -81.8458 264° West 364 419 17,700 1,440 Climbing Jacksonville Center
01:29PM 28.5494 -81.9639 275° West 374 430 19,000 1,800 Climbing Jacksonville Center
01:30PM 28.5606 -82.0961 275° West 384 442 21,400 2,520 Climbing Jacksonville Center
01:31PM 28.5678 -82.2236 274° West 390 449 24,100 2,400 Climbing Jacksonville Center
01:32PM 28.5975 -82.3511 285° West 403 464 26,300 2,040 Climbing Jacksonville Center
01:33PM 28.6522 -82.4644 299° West 417 480 28,200 1,800 Climbing Jacksonville Center
01:34PM 28.7503 -82.5208 333° Northwest 393 452 29,900 1,980 Climbing Jacksonville Center
01:35PM 28.8569 -82.5867 332° Northwest 413 475 32,300 2,400 Climbing Jacksonville Center
01:36PM 28.9572 -82.6481 332° Northwest 419 482 34,700 2,040 Climbing Jacksonville Center
01:37PM 29.0556 -82.7097 331° Northwest 413 475 36,400 1,380 Climbing Jacksonville Center
01:38PM 29.1536 -82.7714 331° Northwest 402 463 37,500 780 Climbing Jacksonville Center
01:39PM 29.2519 -82.8331 331° Northwest 402 463 38,000 240 Climbing Jacksonville Center
01:40PM 29.3522 -82.8950 332° Northwest 397 457 38,000  Level Jacksonville Center
01:41PM 29.4481 -82.9569 331° Northwest 397 457 38,000  Level Jacksonville Center
01:42PM 29.5586 -83.0239 332° Northwest 403 464 38,000  Level Jacksonville Center
01:43PM 29.6672 -83.0600 344° North 398 458 38,000  Level Jacksonville Center
01:44PM 29.7758 -83.0961 344° North 398 458 38,000  Level Jacksonville Center
01:45PM 29.8822 -83.1322 344° North 398 458 38,000  Level Jacksonville Center
01:46PM 29.9886 -83.1683 344° North 398 458 38,000  Level Jacksonville Center
01:47PM 30.0992 -83.2022 345° North 398 458 38,000  Level Jacksonville Center
01:48PM 30.2075 -83.2386 344° North 398 458 38,000  Level Jacksonville Center
01:49PM 30.3161 -83.2728 345° North 398 458 38,000  Level Jacksonville Center
01:50PM 30.4225 -83.3094 343° North 398 458 38,000  Level Jacksonville Center
01:51PM 30.5308 -83.3458 344° North 398 458 38,000  Level Jacksonville Center
01:52PM 30.6414 -83.3828 344° North 398 458 38,000  Level Jacksonville Center
01:53PM 30.7456 -83.4194 343° North 398 458 38,000  Level Jacksonville Center
01:54PM 30.8394 -83.4514 344° North 403 464 38,000  Level Jacksonville Center
01:55PM 30.9458 -83.4908 342° North 403 464 38,000  Level Jacksonville Center
01:56PM 31.0522 -83.5256 344° North 403 464 38,000  Level Jacksonville Center
01:57PM 31.1583 -83.5625 343° North 398 458 38,000 300 Level Jacksonville Center
01:58PM 31.2667 -83.6000 344° North 403 464 38,700 840 Climbing Jacksonville Center
01:59PM 31.3731 -83.6372 343° North 403 464 39,700 420 Climbing Jacksonville Center
02:01PM 31.5917 -83.7147 343° North 405 466 40,000 60 Climbing Atlanta Center
02:02PM 31.7086 -83.7533 344° North 400 460 40,000  Level Atlanta Center
02:03PM 31.8153 -83.7919 343° North 400 460 40,000  Level Atlanta Center
02:04PM 31.9258 -83.8308 343° North 407 468 40,000  Level Atlanta Center
02:05PM 32.0303 -83.8672 344° North 397 457 40,000  Level Atlanta Center
02:06PM 32.1328 -83.9014 344° North 391 450 40,000  Level Atlanta Center
02:07PM 32.2369 -83.9381 343° North 391 450 40,000  Level Atlanta Center
02:08PM 32.3414 -83.9750 343° North 391 450 40,000  Level Atlanta Center
02:09PM 32.4458 -84.0117 343° North 385 443 40,000  Level Atlanta Center
02:10PM 32.5522 -84.0511 343° North 385 443 40,000  Level Atlanta Center
02:11PM 32.6567 -84.0881 343° North 385 443 40,000  Level Atlanta Center
02:12PM 32.7631 -84.1253 344° North 385 443 40,000  Level Atlanta Center
02:13PM 32.8653 -84.1625 343° North 385 443 40,000  Level Atlanta Center
02:14PM 32.9697 -84.1997 343° North 385 443 40,000  Level Atlanta Center
02:15PM 33.0614 -84.2347 342° North 385 443 40,000  Level Atlanta Center
02:16PM 33.1678 -84.2719 344° North 385 443 40,000  Level Atlanta Center
02:17PM 33.2722 -84.3097 343° North 385 443 40,000  Level Atlanta Center
02:18PM 33.3764 -84.3447 344° North 385 443 40,000  Level Atlanta Center
02:19PM 33.4806 -84.3850 342° North 385 443 40,000  Level Atlanta Center
02:20PM 33.5828 -84.4203 344° North 384 442 40,000 -60 Level Atlanta Center
02:21PM 33.6933 -84.4658 341° North 384 442 39,900 -600 Descending Atlanta Center
02:22PM 33.7892 -84.5086 340° North 377 434 38,900 -1,020 Descending Atlanta Center
02:23PM 33.8975 -84.5544 341° North 377 434 37,900 -1,020 Descending Atlanta Center
02:24PM 33.9997 -84.6000 340° North 389 448 36,900 -960 Descending Atlanta Center
02:25PM 34.1017 -84.6458 340° North 389 448 36,000 -900 Descending Atlanta Center
02:26PM 34.1975 -84.6892 339° North 395 455 35,100 -960 Descending Atlanta Center
02:27PM 34.2911 -84.7478 333° Northwest 384 442 34,100 -600 Descending Atlanta Center
02:28PM 34.3825 -84.8139 329° Northwest 379 436 34,000 -60 Descending Atlanta Center
02:29PM 34.4717 -84.8803 328° Northwest 379 436 34,000  Level Atlanta Center
02:30PM 34.5714 -84.9519 329° Northwest 379 436 34,000 -420 Level Atlanta Center
02:31PM 34.6586 -85.0211 327° Northwest 379 436 33,200 -900 Descending Atlanta Center
02:32PM 34.7456 -85.0878 328° Northwest 374 430 32,200 -1,080 Descending Atlanta Center
02:33PM 34.8328 -85.1547 328° Northwest 374 430 31,100 -960 Descending Atlanta Center
02:34PM 34.9011 -85.2089 327° Northwest 368 423 30,300 -1,020 Descending Atlanta Center
02:36PM 35.0792 -85.3458 328° Northwest 360 414 28,200 -1,320 Descending Memphis Center
02:37PM 35.1594 -85.4197 323° Northwest 360 414 26,600 -1,740 Descending Memphis Center
02:38PM 35.2253 -85.5022 314° West 347 399 24,800 -1,800 Descending Memphis Center
02:39PM 35.2867 -85.5800 314° West 335 386 23,100 -1,740 Descending Memphis Center
02:40PM 35.3500 -85.6578 315° West 330 380 21,400 -1,740 Descending Memphis Center
02:41PM 35.4092 -85.7336 314° West 325 374 19,700 -1,680 Descending Memphis Center
02:42PM 35.4661 -85.8017 316° Northwest 313 360 18,100 -1,560 Descending Memphis Center
02:43PM 35.5231 -85.8778 313° West 305 351 16,600 -1,620 Descending Memphis Center
02:44PM 35.5797 -85.9486 315° West 300 345 14,900 -1,680 Descending Memphis Center
02:45PM 35.6367 -86.0222 314° West 300 345 13,300 -1,620 Descending Memphis Center
02:46PM 35.6892 -86.0986 310° West 300 345 11,700 -1,380 Descending Memphis Center
02:47PM 35.7358 -86.1781 306° West 295 339 10,600 -1,140 Descending Memphis Center
02:48PM 35.7800 -86.2578 304° West 286 329 9,500 -1,260 Descending Memphis Center
02:49PM 35.8222 -86.3375 303° West 281 323 8,100 -1,440 Descending Memphis Center
02:50PM 35.8644 -86.4125 305° West 269 310 6,700 -1,320 Descending Memphis Center
02:51PM 35.9044 -86.4900 303° West 274 315 5,500 -900 Descending Memphis Center
02:52PM 35.9417 -86.5547 305° West 269 310 5,000 -780 Descending Memphis Center
02:53PM 35.9772 -86.6225 303° West 252 290 4,000 -1,140 Descending Memphis Center
02:54PM 36.0125 -86.6875 304° West 242 278 2,800 -1,140 Descending Memphis Center
02:55PM 36.0522 -86.6908 356° North 167 192 1,800 -900 Descending Memphis Center
02:56PM 36.0894 -86.6789 15° North 139 160 1,100 -720 Descending Memphis Center
02:58PM 36.1167 -86.6667 345° North  Level FlightAware Approximate
03:05PM 36.1245 -86.6782 345° North  Level Estimated
03:06PM 36.1245 -86.6782 345° North  Level Estimated
03:07PM 36.1245 -86.6782 345° North  Level Estimated
03:08PM 36.1245 -86.6782 345° North  Level Estimated
03:09PM 36.1245 -86.6782 345° North  Level Estimated
03:10PM 36.1245 -86.6782 345° North  Level Estimated